Terminal Aerodrome Forecast
Issued by NWS

Home | Current Version | Previous Version | Text Only | Print | Product List | Glossary On
Versions: 1 2 3 4 5 6 7 8 9 10 11 12 13 14 15 16 17 18 19 20 21 22 23 24 25 26 27 28 29
000
FTUS43 KGLD 300349 AAB
TAFMCK
TAF AMD
KMCK 300349Z 3004/3024 34015KT P6SM BKN018
     FM300600 34008KT P6SM BKN017
     FM301200 01007KT P6SM SCT035
     FM302000 06006KT P6SM SKC=

USA.gov is the U.S. government's official web portal to all federal, state and local government web resources and services.